Time;durP1;ratioP1;P1;durP2;ratioP2;P2;SDS_P1;SDS_P2;PMS_P1;PMS_P2;Temp;Humidity;BMP_temperature;BMP_pressure;BME280_temperature;BME280_humidity;BME280_pressure;Samples;Min_cycle;Max_cycle;Signal;HPM_P1;HPM_P2
2021/03/04 00:00:34;;;;;;;114.73;47.40;;;6.70;84.90;;;;;;5053393;28;20104;-74
2021/03/04 00:03:01;;;;;;;109.03;45.27;;;6.80;85.00;;;;;;5053691;28;20029;-74
2021/03/04 00:05:27;;;;;;;115.73;47.57;;;6.70;85.10;;;;;;5035787;28;20475;-74
2021/03/04 00:07:53;;;;;;;114.57;48.27;;;6.80;85.40;;;;;;5053416;28;20060;-74
2021/03/04 00:10:20;;;;;;;123.37;49.93;;;6.70;85.30;;;;;;5053608;28;20028;-74
2021/03/04 00:12:47;;;;;;;124.83;49.43;;;6.80;85.60;;;;;;5053539;28;20025;-74
2021/03/04 00:15:15;;;;;;;121.30;46.70;;;6.80;85.70;;;;;;5035807;28;20035;-74
2021/03/04 00:17:42;;;;;;;130.17;51.10;;;6.80;85.50;;;;;;5068771;28;20040;-75
2021/03/04 00:20:11;;;;;;;116.60;45.67;;;6.70;85.30;;;;;;5052170;28;20021;-74
2021/03/04 00:22:36;;;;;;;112.17;45.97;;;6.70;85.40;;;;;;5053304;28;20059;-75
2021/03/04 00:25:04;;;;;;;114.67;47.97;;;6.70;85.50;;;;;;5051982;28;20457;-74
2021/03/04 00:27:29;;;;;;;112.57;45.37;;;6.70;85.50;;;;;;5053126;28;20029;-73
2021/03/04 00:29:55;;;;;;;101.30;43.13;;;6.70;85.60;;;;;;5051792;28;20029;-74
2021/03/04 00:32:21;;;;;;;114.67;45.87;;;6.80;86.00;;;;;;5053201;28;20028;-74
2021/03/04 00:34:46;;;;;;;109.83;44.90;;;6.60;86.40;;;;;;5051829;28;20108;-74
2021/03/04 00:37:12;;;;;;;116.40;47.67;;;6.50;86.10;;;;;;5068524;28;20029;-74
2021/03/04 00:39:38;;;;;;;111.37;45.80;;;6.60;86.60;;;;;;5035357;28;20419;-74
2021/03/04 00:42:04;;;;;;;109.00;46.53;;;6.60;86.80;;;;;;5053196;28;20029;-74
2021/03/04 00:44:30;;;;;;;114.80;46.10;;;6.50;86.90;;;;;;5051877;28;20021;-74
2021/03/04 00:46:55;;;;;;;103.30;43.87;;;6.50;86.50;;;;;;5053114;28;20063;-74
2021/03/04 00:49:21;;;;;;;107.03;43.17;;;6.50;86.60;;;;;;5051949;28;20068;-74
2021/03/04 00:51:46;;;;;;;101.13;42.97;;;6.50;86.40;;;;;;5053025;28;20036;-74
2021/03/04 00:54:12;;;;;;;99.60;42.77;;;6.60;86.40;;;;;;5052999;28;20025;-74
2021/03/04 00:56:38;;;;;;;106.07;43.67;;;6.50;86.60;;;;;;5068538;28;20033;-74
2021/03/04 00:59:03;;;;;;;109.33;45.50;;;6.60;86.80;;;;;;5052831;28;20473;-74
2021/03/04 01:01:29;;;;;;;113.67;45.70;;;6.50;86.60;;;;;;5068226;28;20043;-74
2021/03/04 01:03:54;;;;;;;104.87;41.97;;;6.50;86.50;;;;;;5052816;28;20029;-74
2021/03/04 01:06:20;;;;;;;109.37;44.47;;;6.50;86.50;;;;;;5052664;28;20429;-74
2021/03/04 01:08:47;;;;;;;100.83;41.47;;;6.50;86.60;;;;;;5053082;28;20104;-75
2021/03/04 01:11:14;;;;;;;101.40;41.13;;;6.50;86.50;;;;;;5052932;28;20041;-74
2021/03/04 01:13:41;;;;;;;99.20;40.33;;;6.60;86.80;;;;;;5068097;28;20120;-75
2021/03/04 01:16:06;;;;;;;109.27;43.37;;;6.50;86.80;;;;;;5052596;28;20104;-74
2021/03/04 01:18:32;;;;;;;108.17;44.13;;;6.60;87.20;;;;;;5052940;28;20075;-82
2021/03/04 01:20:58;;;;;;;106.87;43.63;;;6.60;87.70;;;;;;5068351;28;20025;-81
2021/03/04 01:23:23;;;;;;;105.67;41.90;;;6.60;87.10;;;;;;5051718;28;20021;-81
2021/03/04 01:25:49;;;;;;;101.37;41.97;;;6.60;86.60;;;;;;5071585;28;20075;-82
2021/03/04 01:28:15;;;;;;;97.40;40.90;;;6.60;86.60;;;;;;5055149;28;20033;-82
2021/03/04 01:30:41;;;;;;;93.50;39.80;;;6.60;87.00;;;;;;5055246;28;20021;-81
2021/03/04 01:33:07;;;;;;;85.43;37.90;;;6.60;86.80;;;;;;5056135;28;20033;-81
2021/03/04 01:35:33;;;;;;;105.93;40.67;;;6.50;86.60;;;;;;5071818;28;20021;-81
2021/03/04 01:37:58;;;;;;;104.40;41.80;;;6.50;86.60;;;;;;5071590;28;20064;-81
2021/03/04 01:40:24;;;;;;;98.17;40.03;;;6.70;86.80;;;;;;5056340;28;20025;-82
2021/03/04 01:42:50;;;;;;;99.47;37.70;;;6.60;86.70;;;;;;5056395;28;20033;-82
2021/03/04 01:45:17;;;;;;;97.73;39.70;;;6.50;86.80;;;;;;5071466;28;20021;-81
2021/03/04 01:47:47;;;;;;;102.13;42.10;;;6.50;86.90;;;;;;5071491;28;20063;-81
2021/03/04 01:50:13;;;;;;;98.00;39.60;;;6.60;87.00;;;;;;5056059;28;20032;-81
2021/03/04 01:52:39;;;;;;;89.30;38.27;;;6.60;87.10;;;;;;5055861;28;20112;-81
2021/03/04 01:55:06;;;;;;;94.57;38.83;;;6.50;86.70;;;;;;5054834;28;20129;-81
2021/03/04 01:57:32;;;;;;;86.13;36.13;;;6.50;86.80;;;;;;5054545;28;20029;-81
2021/03/04 01:59:58;;;;;;;90.43;37.50;;;6.50;87.10;;;;;;5055759;28;20060;-81
2021/03/04 02:02:25;;;;;;;91.60;38.57;;;6.60;87.40;;;;;;5071081;28;20112;-82
2021/03/04 02:04:52;;;;;;;88.70;37.67;;;6.50;87.50;;;;;;5057205;28;20115;-82
2021/03/04 02:07:35;;;;;;;88.40;37.73;;;6.50;87.50;;;;;;5075396;28;20110;-81
2021/03/04 02:10:12;;;;;;;90.03;36.43;;;6.50;87.60;;;;;;5075448;28;20043;-82
2021/03/04 02:13:14;;;;;;;91.20;38.87;;;6.50;87.40;;;;;;5074146;28;20028;-81
2021/03/04 02:15:49;;;;;;;79.03;34.37;;;6.50;87.10;;;;;;5074062;28;20021;-81
2021/03/04 02:18:18;;;;;;;71.97;31.67;;;6.50;87.00;;;;;;5075525;28;20024;-81
2021/03/04 02:21:16;;;;;;;74.03;34.20;;;6.40;86.90;;;;;;5075266;28;20028;-81
2021/03/04 02:23:50;;;;;;;66.83;30.63;;;6.30;86.60;;;;;;5073676;28;20044;-81
2021/03/04 02:26:36;;;;;;;68.93;30.10;;;6.30;86.70;;;;;;5075563;28;20020;-80
2021/03/04 02:29:03;;;;;;;64.50;30.47;;;6.30;87.00;;;;;;5073886;28;20020;-81
2021/03/04 02:31:31;;;;;;;71.03;30.97;;;6.20;87.00;;;;;;5073826;28;20123;-81
2021/03/04 02:34:00;;;;;;;63.73;29.13;;;6.20;87.50;;;;;;5073701;28;20039;-81
2021/03/04 02:36:27;;;;;;;71.63;30.73;;;6.10;86.90;;;;;;5073831;28;20123;-81
2021/03/04 02:38:53;;;;;;;65.30;29.80;;;6.10;87.10;;;;;;5073744;28;20021;-81
2021/03/04 02:41:19;;;;;;;73.67;31.37;;;6.10;87.30;;;;;;5073628;28;20070;-81
2021/03/04 02:43:46;;;;;;;72.17;29.07;;;6.10;87.20;;;;;;5073737;28;20028;-81
2021/03/04 02:46:12;;;;;;;66.80;29.93;;;6.00;86.90;;;;;;5073577;28;20102;-81
2021/03/04 02:48:40;;;;;;;63.43;27.87;;;6.00;86.90;;;;;;5073579;28;20043;-81
2021/03/04 02:51:06;;;;;;;72.43;32.17;;;6.10;87.10;;;;;;5057175;28;20388;-81
2021/03/04 02:53:33;;;;;;;65.03;30.53;;;6.10;87.50;;;;;;5074682;28;20036;-75
2021/03/04 02:56:01;;;;;;;69.73;29.80;;;6.10;87.40;;;;;;5073321;28;20143;-81
2021/03/04 02:58:27;;;;;;;60.47;28.33;;;6.10;87.00;;;;;;5073411;28;20028;-81
2021/03/04 03:00:54;;;;;;;62.27;28.40;;;6.10;86.80;;;;;;5057064;28;20087;-81
2021/03/04 03:03:21;;;;;;;59.60;28.53;;;6.10;87.60;;;;;;5073256;28;20035;-81
2021/03/04 03:05:49;;;;;;;64.80;30.03;;;6.10;86.90;;;;;;5056400;28;20040;-81
2021/03/04 03:08:16;;;;;;;66.97;28.67;;;6.00;86.90;;;;;;5056498;28;20431;-81
2021/03/04 03:10:46;;;;;;;64.83;29.00;;;6.00;86.60;;;;;;5072997;28;20445;-81
2021/03/04 03:13:14;;;;;;;64.10;27.73;;;6.00;87.10;;;;;;5056601;28;20025;-80
2021/03/04 03:15:39;;;;;;;64.57;27.53;;;6.10;87.00;;;;;;5074138;28;20029;-81
2021/03/04 03:18:06;;;;;;;62.40;28.20;;;5.90;86.80;;;;;;5072878;28;20033;-81
2021/03/04 03:20:32;;;;;;;66.17;29.00;;;5.90;86.90;;;;;;5072835;28;20060;-81
2021/03/04 03:22:58;;;;;;;60.77;28.13;;;5.90;87.10;;;;;;5073008;28;20513;-81
2021/03/04 03:25:24;;;;;;;65.17;28.20;;;5.90;87.10;;;;;;5074219;28;20021;-81
2021/03/04 03:27:50;;;;;;;66.27;28.60;;;5.80;87.10;;;;;;5073963;28;20032;-81
2021/03/04 03:30:20;;;;;;;63.27;28.03;;;5.80;87.30;;;;;;5073945;28;20063;-81
2021/03/04 03:33:13;;;;;;;65.60;29.77;;;5.80;87.30;;;;;;5074063;28;20024;-81
2021/03/04 03:35:39;;;;;;;67.03;28.17;;;5.90;87.50;;;;;;5072490;28;20028;-81
2021/03/04 03:38:06;;;;;;;65.67;29.93;;;5.90;87.80;;;;;;5073720;28;20037;-81
2021/03/04 03:40:34;;;;;;;69.57;29.63;;;5.90;87.80;;;;;;5073901;28;20077;-81
2021/03/04 03:43:06;;;;;;;69.03;30.67;;;5.90;87.50;;;;;;5072382;28;20036;-81
2021/03/04 03:45:38;;;;;;;67.00;29.47;;;5.90;87.40;;;;;;5072566;28;20380;-81
2021/03/04 03:48:08;;;;;;;67.27;29.07;;;5.90;87.50;;;;;;5072142;28;20130;-81
2021/03/04 03:50:34;;;;;;;64.57;27.83;;;5.80;87.60;;;;;;5072203;28;20057;-81
2021/03/04 03:53:01;;;;;;;58.33;25.70;;;5.80;87.90;;;;;;5073619;28;20028;-81
2021/03/04 03:55:28;;;;;;;66.10;28.23;;;5.90;87.70;;;;;;5072304;28;20032;-82
2021/03/04 03:57:55;;;;;;;68.80;29.37;;;5.90;87.70;;;;;;5072105;28;20024;-82
2021/03/04 04:00:24;;;;;;;69.40;29.17;;;5.90;87.60;;;;;;5072158;28;20082;-81
2021/03/04 04:03:01;;;;;;;63.93;29.30;;;5.90;88.00;;;;;;5055972;28;20029;-81
2021/03/04 04:05:27;;;;;;;66.17;29.67;;;5.90;87.70;;;;;;5071771;28;20514;-81
2021/03/04 04:07:55;;;;;;;69.33;30.03;;;5.90;87.90;;;;;;5055334;28;20078;-81
2021/03/04 04:10:25;;;;;;;69.00;30.43;;;5.90;87.60;;;;;;5055626;28;20079;-81
2021/03/04 04:12:51;;;;;;;68.70;28.83;;;5.90;87.60;;;;;;5073254;28;20032;-81
2021/03/04 04:15:18;;;;;;;63.67;28.43;;;5.90;87.70;;;;;;5072091;28;20033;-81
2021/03/04 04:17:43;;;;;;;63.63;26.77;;;5.90;87.60;;;;;;5072051;28;20029;-81
2021/03/04 04:20:09;;;;;;;63.60;28.07;;;5.90;87.60;;;;;;5055281;28;20029;-81
2021/03/04 04:22:36;;;;;;;63.60;28.27;;;5.90;87.60;;;;;;5071985;28;20472;-81
2021/03/04 04:25:02;;;;;;;59.57;25.60;;;5.80;87.40;;;;;;5071965;28;20418;-81
2021/03/04 04:27:28;;;;;;;63.87;26.63;;;5.80;87.50;;;;;;5055166;28;20388;-82
2021/03/04 04:29:53;;;;;;;64.20;27.50;;;5.80;87.50;;;;;;5073083;28;20024;-81
2021/03/04 04:32:19;;;;;;;63.17;26.80;;;5.80;87.70;;;;;;5071713;28;20032;-81
2021/03/04 04:34:45;;;;;;;66.10;27.43;;;5.90;87.60;;;;;;5071715;28;20043;-81
2021/03/04 04:37:10;;;;;;;65.73;28.33;;;5.90;87.70;;;;;;5073152;28;20025;-81
2021/03/04 04:39:36;;;;;;;56.67;25.07;;;5.80;87.80;;;;;;5071745;28;20012;-82
2021/03/04 04:42:02;;;;;;;60.33;27.00;;;5.90;87.90;;;;;;5055260;28;20495;-82
2021/03/04 04:44:28;;;;;;;69.80;27.77;;;5.80;87.60;;;;;;5071736;28;20383;-81
2021/03/04 04:46:54;;;;;;;65.47;28.30;;;5.80;87.60;;;;;;5072921;28;20095;-82
2021/03/04 04:49:19;;;;;;;71.97;28.63;;;5.90;87.60;;;;;;5071906;28;20108;-81
2021/03/04 04:51:45;;;;;;;73.87;30.53;;;5.90;87.60;;;;;;5055200;28;20090;-82
2021/03/04 04:54:10;;;;;;;61.53;26.47;;;5.80;87.50;;;;;;5071658;28;20056;-82
2021/03/04 04:56:36;;;;;;;64.63;26.27;;;5.90;87.60;;;;;;5071617;28;20021;-81
2021/03/04 04:59:02;;;;;;;68.30;28.87;;;5.90;87.60;;;;;;5056415;28;20031;-81
2021/03/04 05:01:28;;;;;;;73.87;31.17;;;5.90;87.60;;;;;;5058359;28;20025;-81
2021/03/04 05:03:53;;;;;;;69.63;29.03;;;5.90;87.60;;;;;;5057559;28;20354;-81
2021/03/04 05:06:20;;;;;;;76.40;31.20;;;5.90;87.60;;;;;;5057231;28;20056;-81
2021/03/04 05:08:46;;;;;;;68.23;29.93;;;5.90;87.50;;;;;;5073591;28;20028;-81
2021/03/04 05:11:11;;;;;;;69.73;28.90;;;5.90;87.50;;;;;;5058627;28;20032;-81
2021/03/04 05:13:37;;;;;;;70.43;28.40;;;5.90;87.50;;;;;;5075316;28;20481;-81
2021/03/04 05:16:03;;;;;;;73.93;29.40;;;5.80;87.50;;;;;;5058520;28;20029;-81
2021/03/04 05:18:28;;;;;;;74.77;30.00;;;5.90;87.60;;;;;;5075270;28;20020;-81
2021/03/04 05:20:54;;;;;;;67.43;27.93;;;5.90;87.50;;;;;;5058760;28;20021;-81
2021/03/04 05:23:20;;;;;;;65.10;27.93;;;5.90;87.60;;;;;;5076297;28;20035;-81
2021/03/04 05:25:45;;;;;;;75.03;31.10;;;5.90;87.50;;;;;;5076460;28;20082;-81
2021/03/04 05:28:13;;;;;;;65.67;29.50;;;5.80;87.50;;;;;;5058561;28;20467;-81
2021/03/04 05:30:39;;;;;;;71.63;29.73;;;5.80;87.80;;;;;;5074877;28;20107;-81
2021/03/04 05:33:05;;;;;;;74.50;32.57;;;5.80;87.90;;;;;;5069140;28;20132;-81
2021/03/04 05:35:30;;;;;;;63.00;27.50;;;5.80;87.60;;;;;;5059223;28;20492;-81
2021/03/04 05:37:56;;;;;;;69.07;29.10;;;5.80;87.50;;;;;;5057832;28;20028;-81
2021/03/04 05:40:23;;;;;;;73.73;30.13;;;5.80;87.50;;;;;;5075759;28;20025;-81
2021/03/04 05:42:49;;;;;;;69.60;27.80;;;5.70;87.60;;;;;;5073873;28;20472;-81
2021/03/04 05:45:18;;;;;;;68.10;27.20;;;5.70;87.80;;;;;;5075851;28;20016;-81
2021/03/04 05:47:46;;;;;;;71.87;29.60;;;5.70;88.00;;;;;;5073576;28;20069;-81
2021/03/04 05:50:17;;;;;;;73.10;28.43;;;5.70;88.00;;;;;;5054535;28;20108;-81
2021/03/04 05:52:53;;;;;;;69.17;29.50;;;5.70;88.00;;;;;;5054214;28;20029;-81
2021/03/04 05:55:20;;;;;;;67.53;28.10;;;5.70;88.00;;;;;;5052899;28;20112;-81
2021/03/04 05:57:50;;;;;;;72.00;29.63;;;5.70;88.10;;;;;;5037398;28;20489;-81
2021/03/04 06:00:16;;;;;;;70.47;28.67;;;5.70;88.10;;;;;;5055630;28;20104;-82
2021/03/04 06:02:43;;;;;;;75.53;29.20;;;5.70;88.00;;;;;;5054377;28;20028;-82
2021/03/04 06:05:12;;;;;;;72.33;30.23;;;5.70;87.90;;;;;;5055309;28;20049;-80
2021/03/04 06:07:44;;;;;;;69.37;30.37;;;5.70;88.00;;;;;;5055528;28;20094;-81
2021/03/04 06:10:11;;;;;;;71.17;27.93;;;5.70;88.20;;;;;;5053911;28;20037;-81
2021/03/04 06:12:37;;;;;;;68.83;29.67;;;5.60;88.00;;;;;;5055635;28;20464;-81
2021/03/04 06:15:05;;;;;;;69.20;30.10;;;5.70;88.00;;;;;;5053183;28;20032;-81
2021/03/04 06:17:31;;;;;;;67.17;28.03;;;5.60;88.30;;;;;;5044003;28;20029;-81
2021/03/04 06:20:03;;;;;;;73.80;30.20;;;5.60;88.70;;;;;;5046846;28;21017;-81
2021/03/04 06:22:30;;;;;;;64.27;27.93;;;5.60;87.90;;;;;;5067151;28;20025;-80
2021/03/04 06:24:58;;;;;;;65.30;27.53;;;5.60;87.90;;;;;;5064443;28;20373;-80
2021/03/04 06:27:33;;;;;;;67.80;30.17;;;5.50;88.00;;;;;;5068044;28;20472;-79
2021/03/04 06:29:59;;;;;;;;;;;5.50;88.30;;;;;;5070531;28;20059;-80
2021/03/04 06:32:26;;;;;;;63.13;26.20;;;5.50;88.50;;;;;;5063252;28;19920;-80
2021/03/04 06:35:08;;;;;;;63.70;26.73;;;5.50;88.10;;;;;;5072311;28;20063;-80
2021/03/04 06:37:37;;;;;;;73.03;28.90;;;5.50;88.00;;;;;;5073547;28;20023;-81
2021/03/04 06:40:06;;;;;;;65.23;28.10;;;5.50;88.10;;;;;;5073522;28;20021;-81
2021/03/04 06:42:42;;;;;;;70.97;28.47;;;5.50;88.00;;;;;;5073373;28;20468;-81
2021/03/04 06:45:25;;;;;;;66.40;26.77;;;5.50;88.20;;;;;;5073528;28;20035;-81
2021/03/04 06:47:51;;;;;;;66.13;26.80;;;5.50;88.30;;;;;;5059062;28;20392;-81
2021/03/04 06:50:25;;;;;;;68.43;28.10;;;5.50;88.80;;;;;;5073404;28;20056;-81
2021/03/04 06:52:51;;;;;;;71.50;25.67;;;5.50;88.00;;;;;;5074506;28;20024;-81
2021/03/04 06:55:17;;;;;;;67.27;26.57;;;5.50;88.70;;;;;;5068373;28;20515;-81
2021/03/04 06:58:00;;;;;;;72.97;28.10;;;5.60;88.20;;;;;;5062145;28;20036;-81
2021/03/04 07:00:26;;;;;;;70.60;28.10;;;5.50;88.20;;;;;;5053049;28;20401;-81
2021/03/04 07:02:58;;;;;;;76.57;30.03;;;5.50;88.30;;;;;;5054097;28;20048;-82
2021/03/04 07:05:25;;;;;;;67.90;28.03;;;5.60;88.40;;;;;;5052671;28;20053;-80
2021/03/04 07:07:56;;;;;;;70.00;28.40;;;5.60;88.50;;;;;;5052833;28;20029;-81
2021/03/04 07:10:27;;;;;;;67.37;27.13;;;5.70;88.60;;;;;;5054097;28;20094;-83
2021/03/04 07:12:53;;;;;;;70.33;28.20;;;5.60;88.40;;;;;;5052640;28;20043;-81
2021/03/04 07:15:20;;;;;;;64.83;26.00;;;5.60;88.30;;;;;;5053662;28;20033;-81
2021/03/04 07:17:50;;;;;;;71.03;28.07;;;5.60;88.30;;;;;;5052539;28;20469;-82
2021/03/04 07:20:18;;;;;;;71.43;28.73;;;5.60;88.70;;;;;;5053715;28;20478;-81
2021/03/04 07:22:47;;;;;;;69.93;28.90;;;5.60;88.60;;;;;;5053672;28;20078;-81
2021/03/04 07:25:14;;;;;;;64.37;25.93;;;5.60;88.60;;;;;;5053630;28;20021;-82
2021/03/04 07:27:41;;;;;;;61.77;27.13;;;5.60;88.20;;;;;;5052499;28;20024;-81
2021/03/04 07:30:09;;;;;;;65.63;25.20;;;5.70;88.20;;;;;;5053695;28;20029;-81
2021/03/04 07:32:35;;;;;;;65.67;26.37;;;5.70;88.10;;;;;;5052476;28;20105;-81
2021/03/04 07:35:04;;;;;;;61.30;25.73;;;5.70;88.10;;;;;;5057705;28;20067;-81
2021/03/04 07:37:30;;;;;;;67.87;27.33;;;5.70;87.90;;;;;;5062804;28;20048;-82
2021/03/04 07:40:00;;;;;;;71.03;26.83;;;5.70;88.10;;;;;;5061109;28;20401;-82
2021/03/04 07:42:27;;;;;;;73.13;27.97;;;5.70;88.20;;;;;;5062303;28;20024;-81
2021/03/04 07:44:53;;;;;;;69.77;26.50;;;5.70;88.10;;;;;;5056646;28;20025;-81
2021/03/04 07:47:25;;;;;;;77.13;26.33;;;5.80;87.90;;;;;;5053547;28;20032;-82
2021/03/04 07:49:51;;;;;;;63.60;24.57;;;5.80;87.90;;;;;;5052049;28;20029;-81
2021/03/04 07:52:17;;;;;;;61.87;24.70;;;5.80;87.70;;;;;;5065658;28;20028;-82
2021/03/04 07:54:47;;;;;;;62.33;24.90;;;5.90;87.80;;;;;;5073277;28;20040;-81
2021/03/04 07:57:22;;;;;;;74.53;26.70;;;5.80;87.70;;;;;;5071968;28;20036;-82
2021/03/04 07:59:51;;;;;;;71.10;26.40;;;5.80;87.70;;;;;;5072074;28;20171;-82
2021/03/04 08:02:25;;;;;;;66.67;25.50;;;5.80;87.70;;;;;;5073355;28;20048;-82
2021/03/04 08:04:50;;;;;;;58.88;23.55;;;5.90;87.70;;;;;;5067672;28;20082;-80
2021/03/04 08:07:27;;;;;;;71.47;27.47;;;5.90;87.70;;;;;;5051715;28;20045;-80
2021/03/04 08:10:10;;;;;;;70.50;26.97;;;5.80;87.70;;;;;;5053359;28;20059;-80
2021/03/04 08:12:51;;;;;;;68.97;27.97;;;5.90;87.60;;;;;;5051757;28;20086;-81
2021/03/04 08:15:36;;;;;;;64.43;25.03;;;5.90;87.60;;;;;;5051929;28;20025;-82
2021/03/04 08:18:04;;;;;;;71.03;27.67;;;5.90;87.60;;;;;;5051792;28;20029;-81
2021/03/04 08:20:30;;;;;;;74.73;26.47;;;6.00;87.70;;;;;;5053084;28;20069;-81
2021/03/04 08:22:57;;;;;;;67.17;25.90;;;5.80;87.60;;;;;;5051721;28;20064;-81
2021/03/04 08:25:25;;;;;;;72.77;27.13;;;5.90;87.60;;;;;;5051788;28;20037;-81
2021/03/04 08:27:52;;;;;;;72.93;28.23;;;5.90;87.60;;;;;;5052445;28;20044;-81
2021/03/04 08:30:32;;;;;;;69.63;27.70;;;6.00;87.60;;;;;;5050635;28;20142;-81
2021/03/04 08:33:01;;;;;;;67.30;26.83;;;6.00;87.70;;;;;;5051052;28;20391;-81
2021/03/04 08:35:26;;;;;;;75.93;28.00;;;6.00;87.90;;;;;;5051630;28;20154;-82
2021/03/04 08:38:01;;;;;;;69.00;26.47;;;6.00;87.80;;;;;;5052911;28;20112;-82
2021/03/04 08:40:27;;;;;;;67.63;26.87;;;6.00;87.60;;;;;;5052879;28;20032;-81
2021/03/04 08:42:53;;;;;;;77.90;27.60;;;6.00;87.60;;;;;;5051725;28;20025;-81
2021/03/04 08:45:31;;;;;;;74.13;26.90;;;5.90;88.20;;;;;;5034991;28;20029;-81
2021/03/04 08:47:57;;;;;;;80.23;27.77;;;6.00;88.20;;;;;;5051642;28;20396;-81
2021/03/04 08:50:41;;;;;;;75.37;26.87;;;6.00;87.60;;;;;;5070792;28;20036;-83
2021/03/04 08:53:13;;;;;;;76.30;28.02;;;6.00;88.10;;;;;;5072728;28;20384;-81
2021/03/04 08:55:52;;;;;;;75.80;30.17;;;6.00;87.80;;;;;;5072349;28;20021;-80
2021/03/04 08:58:26;;;;;;;76.33;29.50;;;6.00;88.00;;;;;;5070853;28;20442;-82
2021/03/04 09:01:03;;;;;;;72.45;26.33;;;6.00;88.00;;;;;;5039976;28;20055;-81
2021/03/04 09:03:40;;;;;;;66.80;26.80;;;6.00;87.90;;;;;;5056333;28;20033;-81
2021/03/04 09:06:07;;;;;;;80.80;27.83;;;6.00;87.80;;;;;;5070904;28;20124;-81
2021/03/04 09:08:44;;;;;;;70.63;25.93;;;5.90;87.60;;;;;;5072218;28;20097;-82
2021/03/04 09:11:35;;;;;;;64.07;25.37;;;6.00;87.50;;;;;;5072511;28;20457;-82
2021/03/04 09:14:06;;;;;;;65.17;25.70;;;6.10;87.70;;;;;;5072639;28;20034;-82
2021/03/04 09:16:46;;;;;;;65.30;26.13;;;6.10;87.60;;;;;;5071396;28;20542;-82
2021/03/04 09:19:22;;;;;;;65.03;24.50;;;6.00;87.60;;;;;;5072981;28;20079;-83
2021/03/04 09:21:48;;;;;;;62.03;22.93;;;6.10;87.60;;;;;;5071693;28;20357;-82
2021/03/04 09:24:14;;;;;;;60.77;23.47;;;6.10;87.50;;;;;;5071183;28;20031;-82
2021/03/04 09:26:40;;;;;;;60.70;23.37;;;6.20;87.70;;;;;;5071095;28;20082;-81
2021/03/04 09:29:06;;;;;;;60.53;24.87;;;6.10;87.40;;;;;;5054537;28;20032;-81
2021/03/04 09:31:32;;;;;;;61.37;25.03;;;6.10;87.40;;;;;;5052824;28;20534;-82
2021/03/04 09:33:59;;;;;;;53.53;21.23;;;6.10;87.30;;;;;;5061559;28;20032;-83
2021/03/04 09:36:26;;;;;;;60.03;21.47;;;6.10;87.40;;;;;;5063386;28;20082;-82
2021/03/04 09:38:52;;;;;;;55.03;20.60;;;6.10;87.30;;;;;;5063837;28;20420;-81
2021/03/04 09:41:19;;;;;;;56.80;21.63;;;6.10;87.30;;;;;;5069110;28;20057;-80
2021/03/04 09:44:05;;;;;;;54.00;20.87;;;6.10;87.30;;;;;;5071005;28;20051;-81
2021/03/04 09:46:41;;;;;;;48.50;18.90;;;6.10;87.30;;;;;;5075716;28;20377;-81
2021/03/04 09:49:17;;;;;;;50.13;18.90;;;6.10;87.30;;;;;;5058247;28;20448;-81
2021/03/04 09:51:47;;;;;;;52.63;20.53;;;6.10;87.10;;;;;;5070777;28;20013;-81
2021/03/04 09:54:28;;;;;;;54.50;21.77;;;6.10;87.50;;;;;;5054440;28;20091;-81
2021/03/04 09:57:20;;;;;;;50.87;21.70;;;6.10;87.10;;;;;;5054266;28;20020;-81
2021/03/04 09:59:51;;;;;;;47.27;18.67;;;6.00;86.90;;;;;;5053941;28;20123;-82
2021/03/04 10:02:18;;;;;;;49.70;21.57;;;6.20;87.00;;;;;;5054388;28;20472;-81
2021/03/04 10:04:57;;;;;;;44.50;19.07;;;6.10;87.10;;;;;;5068763;28;20111;-82
2021/03/04 10:07:24;;;;;;;39.13;16.37;;;6.20;87.10;;;;;;5057961;28;20162;-81
2021/03/04 10:09:50;;;;;;;41.47;16.63;;;6.20;86.80;;;;;;5041289;28;20052;-82
2021/03/04 10:12:15;;;;;;;43.53;17.80;;;6.20;86.50;;;;;;5068322;28;20127;-82
2021/03/04 10:14:49;;;;;;;42.20;16.67;;;6.20;87.20;;;;;;5073481;28;20016;-82
2021/03/04 10:17:15;;;;;;;44.47;18.05;;;6.30;86.60;;;;;;5075217;28;20040;-74
2021/03/04 10:19:41;;;;;;;44.53;17.50;;;6.30;86.60;;;;;;5074026;28;20055;-75
2021/03/04 10:22:07;;;;;;;38.53;16.03;;;6.30;86.40;;;;;;5073910;28;20024;-74
2021/03/04 10:24:34;;;;;;;35.97;16.00;;;6.30;86.20;;;;;;5057223;28;20105;-74
2021/03/04 10:27:00;;;;;;;37.87;16.10;;;6.30;86.10;;;;;;5075218;28;20054;-74
2021/03/04 10:29:27;;;;;;;37.30;14.70;;;6.30;86.00;;;;;;5075319;28;20038;-74
2021/03/04 10:31:53;;;;;;;34.17;13.43;;;6.30;86.00;;;;;;5059150;28;20025;-74
2021/03/04 10:34:19;;;;;;;37.90;14.73;;;6.30;85.90;;;;;;5056484;28;20066;-74
2021/03/04 10:36:45;;;;;;;32.73;12.80;;;6.30;85.80;;;;;;5066557;28;20116;-74
2021/03/04 10:39:11;;;;;;;30.60;13.23;;;6.40;85.70;;;;;;5066696;28;20139;-75
2021/03/04 10:41:36;;;;;;;27.93;14.33;;;6.40;85.60;;;;;;5074912;28;20074;-73
2021/03/04 10:44:02;;;;;;;27.27;12.43;;;6.40;85.40;;;;;;5072334;28;20032;-73
2021/03/04 10:46:29;;;;;;;28.53;12.73;;;6.40;85.30;;;;;;5073025;28;20103;-73
2021/03/04 10:48:54;;;;;;;29.57;12.73;;;6.40;85.30;;;;;;5074293;28;20032;-73
2021/03/04 10:51:20;;;;;;;29.53;12.13;;;6.50;85.20;;;;;;5057035;28;20029;-74
2021/03/04 10:53:46;;;;;;;30.27;11.77;;;6.50;85.70;;;;;;5040036;28;20396;-73
2021/03/04 10:56:12;;;;;;;28.10;11.87;;;6.50;85.00;;;;;;5039130;28;20043;-73
2021/03/04 10:58:37;;;;;;;29.03;12.07;;;6.50;84.80;;;;;;5056665;28;20496;-73
2021/03/04 11:01:03;;;;;;;28.33;12.17;;;6.50;84.70;;;;;;5056695;28;20024;-73
2021/03/04 11:03:28;;;;;;;26.13;11.20;;;6.60;85.30;;;;;;5072979;28;20077;-74
2021/03/04 11:05:56;;;;;;;25.93;11.70;;;6.60;84.70;;;;;;5073140;28;20028;-73
2021/03/04 11:08:21;;;;;;;23.37;10.37;;;6.60;84.70;;;;;;5056475;28;20183;-73
2021/03/04 11:10:47;;;;;;;27.33;12.10;;;6.60;84.70;;;;;;5039791;28;20519;-73
2021/03/04 11:13:15;;;;;;;29.93;11.73;;;6.70;84.50;;;;;;5072757;28;20476;-73
2021/03/04 11:15:42;;;;;;;27.73;12.83;;;6.70;84.50;;;;;;5056589;28;20033;-73
2021/03/04 11:18:07;;;;;;;20.83;10.33;;;6.70;84.30;;;;;;5074112;28;20500;-82
2021/03/04 11:20:33;;;;;;;28.20;10.97;;;6.70;84.10;;;;;;5074084;28;20032;-82
2021/03/04 11:22:59;;;;;;;25.57;10.43;;;6.70;84.00;;;;;;5072773;28;20107;-82
2021/03/04 11:25:25;;;;;;;26.00;11.63;;;6.70;83.90;;;;;;5056207;28;20480;-82
2021/03/04 11:27:51;;;;;;;29.93;11.17;;;6.70;84.50;;;;;;5056479;28;20033;-82
2021/03/04 11:30:17;;;;;;;24.97;10.87;;;6.70;83.80;;;;;;5056069;28;20051;-81
2021/03/04 11:32:43;;;;;;;24.47;10.37;;;6.70;83.80;;;;;;5072495;28;20078;-81
2021/03/04 11:35:09;;;;;;;23.70;9.97;;;6.70;83.80;;;;;;5073904;28;20032;-81
2021/03/04 11:37:34;;;;;;;25.30;10.43;;;6.70;83.80;;;;;;5073691;28;20116;-80
2021/03/04 11:40:00;;;;;;;23.50;9.77;;;6.60;83.70;;;;;;5072510;28;20067;-81
2021/03/04 11:42:25;;;;;;;29.13;12.30;;;6.60;84.00;;;;;;5072363;28;20055;-81
2021/03/04 11:44:51;;;;;;;21.10;9.90;;;6.60;84.10;;;;;;5073497;28;20039;-82
2021/03/04 11:47:17;;;;;;;21.53;9.40;;;6.50;84.10;;;;;;5073466;28;20119;-81
2021/03/04 11:49:43;;;;;;;24.40;8.93;;;6.50;84.20;;;;;;5056673;28;20036;-81
2021/03/04 11:52:09;;;;;;;17.13;7.60;;;6.60;84.20;;;;;;5072453;28;20488;-82
2021/03/04 11:54:35;;;;;;;16.43;7.80;;;6.50;84.00;;;;;;5072062;28;20059;-82
2021/03/04 11:57:01;;;;;;;15.80;6.37;;;6.50;83.90;;;;;;5073397;28;20476;-81
2021/03/04 11:59:27;;;;;;;11.90;5.73;;;6.50;83.80;;;;;;5073475;28;20028;-82
2021/03/04 12:01:52;;;;;;;13.87;5.93;;;6.50;83.80;;;;;;5073411;28;20028;-81
2021/03/04 12:04:18;;;;;;;13.03;6.03;;;6.50;83.60;;;;;;5072552;28;20357;-79
2021/03/04 12:06:43;;;;;;;15.97;6.90;;;6.40;83.50;;;;;;5051409;28;20053;-79
2021/03/04 12:09:09;;;;;;;13.33;5.93;;;6.50;83.20;;;;;;5057314;28;20488;-81
2021/03/04 12:11:35;;;;;;;13.87;5.77;;;6.40;83.20;;;;;;5056613;28;20033;-81
2021/03/04 12:14:00;;;;;;;11.33;5.07;;;6.40;83.20;;;;;;5053114;28;20033;-82
2021/03/04 12:16:26;;;;;;;12.30;6.17;;;6.40;83.10;;;;;;5051981;28;20103;-82
2021/03/04 12:18:52;;;;;;;14.27;5.73;;;6.50;83.20;;;;;;5051960;28;20024;-82
2021/03/04 12:21:17;;;;;;;10.10;4.70;;;6.50;83.20;;;;;;5051798;28;20029;-82
2021/03/04 12:23:44;;;;;;;10.73;5.30;;;6.50;83.30;;;;;;5052179;28;20036;-82
2021/03/04 12:26:10;;;;;;;11.90;4.87;;;6.60;83.30;;;;;;5052912;28;20107;-81
2021/03/04 12:28:36;;;;;;;9.37;4.10;;;6.70;83.10;;;;;;5053103;28;20025;-81
2021/03/04 12:31:02;;;;;;;12.13;5.57;;;6.80;83.10;;;;;;5063607;28;20037;-74
2021/03/04 12:33:27;;;;;;;8.63;3.90;;;6.90;83.00;;;;;;5063808;28;20495;-74
2021/03/04 12:35:53;;;;;;;8.63;4.03;;;7.00;82.90;;;;;;5062936;28;20032;-73
2021/03/04 12:38:18;;;;;;;10.27;4.30;;;7.10;82.00;;;;;;5062896;28;20029;-73
2021/03/04 12:40:44;;;;;;;9.00;3.93;;;7.20;81.00;;;;;;5061200;28;20056;-73
2021/03/04 12:43:10;;;;;;;8.50;3.43;;;7.20;80.60;;;;;;5063102;28;20028;-73